sensor_id;sensor_type;location;lat;lon;timestamp;pressure;altitude;pressure_sealevel;temperature;humidity
45941;BME280;31858;46.008;8.978;2022-09-27T00:00:21;93121.28;;;12.33;100.00
45941;BME280;31858;46.008;8.978;2022-09-27T00:10:23;93117.88;;;12.49;100.00
45941;BME280;31858;46.008;8.978;2022-09-27T00:20:26;93104.25;;;12.43;100.00
45941;BME280;31858;46.008;8.978;2022-09-27T00:30:28;93109.75;;;12.36;100.00
45941;BME280;31858;46.008;8.978;2022-09-27T00:40:32;93102.44;;;12.56;100.00
45941;BME280;31858;46.008;8.978;2022-09-27T00:50:35;93093.06;;;12.48;100.00
45941;BME280;31858;46.008;8.978;2022-09-27T01:00:43;93067.38;;;12.38;100.00
45941;BME280;31858;46.008;8.978;2022-09-27T01:10:51;93060.59;;;12.33;100.00
45941;BME280;31858;46.008;8.978;2022-09-27T01:21:31;93050.50;;;12.25;100.00
45941;BME280;31858;46.008;8.978;2022-09-27T01:31:40;93035.88;;;11.97;100.00
45941;BME280;31858;46.008;8.978;2022-09-27T01:41:46;93026.47;;;12.08;100.00
45941;BME280;31858;46.008;8.978;2022-09-27T01:51:54;93009.03;;;12.04;100.00
45941;BME280;31858;46.008;8.978;2022-09-27T02:02:03;92986.00;;;11.94;100.00
45941;BME280;31858;46.008;8.978;2022-09-27T02:12:12;92975.16;;;11.85;100.00
45941;BME280;31858;46.008;8.978;2022-09-27T02:22:18;92964.47;;;12.01;100.00
45941;BME280;31858;46.008;8.978;2022-09-27T02:32:23;92951.47;;;11.87;100.00
45941;BME280;31858;46.008;8.978;2022-09-27T02:42:26;92945.88;;;11.65;100.00
45941;BME280;31858;46.008;8.978;2022-09-27T02:52:36;92946.13;;;11.87;100.00
45941;BME280;31858;46.008;8.978;2022-09-27T03:02:49;92954.72;;;11.78;100.00
45941;BME280;31858;46.008;8.978;2022-09-27T03:12:54;92951.94;;;11.65;100.00
45941;BME280;31858;46.008;8.978;2022-09-27T03:22:57;92934.75;;;11.50;100.00
45941;BME280;31858;46.008;8.978;2022-09-27T03:33:00;92928.44;;;11.60;100.00
45941;BME280;31858;46.008;8.978;2022-09-27T03:43:03;92919.00;;;11.72;100.00
45941;BME280;31858;46.008;8.978;2022-09-27T03:53:07;92906.00;;;11.74;100.00
45941;BME280;31858;46.008;8.978;2022-09-27T04:03:08;92917.94;;;11.53;100.00
45941;BME280;31858;46.008;8.978;2022-09-27T04:13:13;92908.06;;;11.34;100.00
45941;BME280;31858;46.008;8.978;2022-09-27T04:23:14;92911.41;;;11.38;100.00
45941;BME280;31858;46.008;8.978;2022-09-27T04:33:17;92929.56;;;11.27;100.00
45941;BME280;31858;46.008;8.978;2022-09-27T04:43:19;92909.22;;;11.17;100.00
45941;BME280;31858;46.008;8.978;2022-09-27T04:53:22;92913.81;;;11.32;100.00
45941;BME280;31858;46.008;8.978;2022-09-27T05:03:24;92899.56;;;11.23;100.00
45941;BME280;31858;46.008;8.978;2022-09-27T05:13:27;92904.81;;;11.26;100.00
45941;BME280;31858;46.008;8.978;2022-09-27T05:23:29;92905.34;;;11.01;100.00
45941;BME280;31858;46.008;8.978;2022-09-27T05:33:32;92907.06;;;10.92;100.00
45941;BME280;31858;46.008;8.978;2022-09-27T05:43:33;92902.59;;;11.05;100.00
45941;BME280;31858;46.008;8.978;2022-09-27T05:53:37;92910.22;;;11.23;100.00
45941;BME280;31858;46.008;8.978;2022-09-27T06:03:38;92912.38;;;10.92;100.00
45941;BME280;31858;46.008;8.978;2022-09-27T06:13:41;92893.63;;;11.15;100.00
45941;BME280;31858;46.008;8.978;2022-09-27T06:23:43;92913.06;;;10.96;100.00
45941;BME280;31858;46.008;8.978;2022-09-27T06:33:46;92895.16;;;10.96;100.00
45941;BME280;31858;46.008;8.978;2022-09-27T06:43:48;92904.59;;;10.81;100.00
45941;BME280;31858;46.008;8.978;2022-09-27T06:53:51;92914.09;;;10.82;100.00
45941;BME280;31858;46.008;8.978;2022-09-27T07:03:53;92932.06;;;10.98;100.00
45941;BME280;31858;46.008;8.978;2022-09-27T07:13:56;92923.19;;;10.85;100.00
45941;BME280;31858;46.008;8.978;2022-09-27T07:23:58;92928.59;;;10.81;100.00
45941;BME280;31858;46.008;8.978;2022-09-27T07:34:01;92922.16;;;10.78;100.00
45941;BME280;31858;46.008;8.978;2022-09-27T07:44:03;92917.50;;;11.02;100.00
45941;BME280;31858;46.008;8.978;2022-09-27T07:54:08;92926.31;;;10.99;100.00
45941;BME280;31858;46.008;8.978;2022-09-27T08:04:10;92931.22;;;11.21;100.00
45941;BME280;31858;46.008;8.978;2022-09-27T08:14:13;92915.41;;;11.30;100.00
45941;BME280;31858;46.008;8.978;2022-09-27T08:24:15;92926.06;;;11.30;100.00
45941;BME280;31858;46.008;8.978;2022-09-27T08:34:18;92931.25;;;11.53;100.00
45941;BME280;31858;46.008;8.978;2022-09-27T08:44:26;92925.84;;;11.73;100.00
45941;BME280;31858;46.008;8.978;2022-09-27T08:54:32;92932.53;;;11.81;100.00
45941;BME280;31858;46.008;8.978;2022-09-27T09:04:38;92929.59;;;12.08;100.00
45941;BME280;31858;46.008;8.978;2022-09-27T09:14:52;92920.09;;;12.07;100.00
45941;BME280;31858;46.008;8.978;2022-09-27T09:25:05;92921.50;;;12.57;100.00
45941;BME280;31858;46.008;8.978;2022-09-27T09:35:20;92913.28;;;12.64;100.00
45941;BME280;31858;46.008;8.978;2022-09-27T09:45:26;92911.22;;;12.84;100.00
45941;BME280;31858;46.008;8.978;2022-09-27T09:55:34;92919.09;;;13.17;100.00
45941;BME280;31858;46.008;8.978;2022-09-27T10:05:36;92912.59;;;13.43;100.00
45941;BME280;31858;46.008;8.978;2022-09-27T10:15:40;92918.38;;;13.67;100.00
45941;BME280;31858;46.008;8.978;2022-09-27T10:25:47;92922.28;;;14.13;100.00
45941;BME280;31858;46.008;8.978;2022-09-27T10:35:51;92928.03;;;14.24;100.00
45941;BME280;31858;46.008;8.978;2022-09-27T10:46:05;92933.44;;;14.46;100.00
45941;BME280;31858;46.008;8.978;2022-09-27T10:56:20;92929.66;;;14.78;100.00
45941;BME280;31858;46.008;8.978;2022-09-27T11:06:28;92917.75;;;15.01;100.00
45941;BME280;31858;46.008;8.978;2022-09-27T11:16:42;92919.19;;;15.46;100.00
45941;BME280;31858;46.008;8.978;2022-09-27T11:26:55;92912.88;;;15.71;100.00
45941;BME280;31858;46.008;8.978;2022-09-27T11:37:11;92915.41;;;15.74;100.00
45941;BME280;31858;46.008;8.978;2022-09-27T11:47:22;92908.47;;;15.95;100.00
45941;BME280;31858;46.008;8.978;2022-09-27T11:57:32;92901.59;;;15.94;96.68
45941;BME280;31858;46.008;8.978;2022-09-27T12:07:40;92900.16;;;16.11;82.21
45941;BME280;31858;46.008;8.978;2022-09-27T12:17:51;92894.03;;;16.20;96.55
45941;BME280;31858;46.008;8.978;2022-09-27T12:27:57;92904.78;;;16.20;90.91
45941;BME280;31858;46.008;8.978;2022-09-27T12:38:08;92889.38;;;16.02;84.23
45941;BME280;31858;46.008;8.978;2022-09-27T12:48:19;92887.50;;;16.30;75.85
45941;BME280;31858;46.008;8.978;2022-09-27T12:58:46;92885.09;;;16.50;72.05
45941;BME280;31858;46.008;8.978;2022-09-27T13:09:25;92897.53;;;16.66;51.36
45941;BME280;31858;46.008;8.978;2022-09-27T13:19:39;92894.66;;;16.42;59.59
45941;BME280;31858;46.008;8.978;2022-09-27T13:29:42;92913.94;;;16.59;60.00
45941;BME280;31858;46.008;8.978;2022-09-27T13:39:45;92914.56;;;16.81;56.02
45941;BME280;31858;46.008;8.978;2022-09-27T13:49:48;92913.50;;;16.70;57.26
45941;BME280;31858;46.008;8.978;2022-09-27T13:59:53;92913.63;;;16.57;55.86
45941;BME280;31858;46.008;8.978;2022-09-27T14:09:58;92918.44;;;16.80;53.77
45941;BME280;31858;46.008;8.978;2022-09-27T14:20:02;92922.69;;;17.23;47.52
45941;BME280;31858;46.008;8.978;2022-09-27T14:30:12;92919.88;;;17.18;51.38
45941;BME280;31858;46.008;8.978;2022-09-27T14:40:20;92923.41;;;17.42;53.73
45941;BME280;31858;46.008;8.978;2022-09-27T14:50:24;92920.69;;;17.93;47.91
45941;BME280;31858;46.008;8.978;2022-09-27T15:00:30;92928.56;;;18.30;47.29
45941;BME280;31858;46.008;8.978;2022-09-27T15:10:35;92923.56;;;18.62;49.24
45941;BME280;31858;46.008;8.978;2022-09-27T15:20:51;92937.28;;;18.73;45.80
45941;BME280;31858;46.008;8.978;2022-09-27T15:30:54;92930.75;;;18.17;47.36
45941;BME280;31858;46.008;8.978;2022-09-27T15:41:03;92937.63;;;17.85;48.98
45941;BME280;31858;46.008;8.978;2022-09-27T15:51:37;92948.34;;;18.03;47.30
45941;BME280;31858;46.008;8.978;2022-09-27T16:01:40;92960.16;;;18.30;48.66
45941;BME280;31858;46.008;8.978;2022-09-27T16:11:43;92961.72;;;18.45;46.10
45941;BME280;31858;46.008;8.978;2022-09-27T16:21:46;92968.25;;;18.53;44.80
45941;BME280;31858;46.008;8.978;2022-09-27T16:31:48;92987.03;;;18.48;46.51
45941;BME280;31858;46.008;8.978;2022-09-27T16:41:54;92982.13;;;18.37;43.44
45941;BME280;31858;46.008;8.978;2022-09-27T16:51:56;92996.34;;;18.14;39.40
45941;BME280;31858;46.008;8.978;2022-09-27T17:02:02;93005.34;;;17.69;38.52
45941;BME280;31858;46.008;8.978;2022-09-27T17:12:04;93017.66;;;16.96;35.38
45941;BME280;31858;46.008;8.978;2022-09-27T17:22:08;93026.25;;;16.55;36.38
45941;BME280;31858;46.008;8.978;2022-09-27T17:32:10;93045.41;;;16.17;36.94
45941;BME280;31858;46.008;8.978;2022-09-27T17:42:14;93052.72;;;15.85;35.36
45941;BME280;31858;46.008;8.978;2022-09-27T17:52:18;93057.75;;;15.74;35.68
45941;BME280;31858;46.008;8.978;2022-09-27T18:02:21;93058.28;;;15.60;35.82
45941;BME280;31858;46.008;8.978;2022-09-27T18:12:22;93080.66;;;15.66;35.00
45941;BME280;31858;46.008;8.978;2022-09-27T18:22:32;93101.56;;;15.49;37.99
45941;BME280;31858;46.008;8.978;2022-09-27T18:32:34;93110.84;;;15.14;36.89
45941;BME280;31858;46.008;8.978;2022-09-27T18:42:37;93106.63;;;14.78;37.76
45941;BME280;31858;46.008;8.978;2022-09-27T18:52:38;93094.09;;;14.50;36.87
45941;BME280;31858;46.008;8.978;2022-09-27T19:02:42;93095.91;;;14.78;34.76
45941;BME280;31858;46.008;8.978;2022-09-27T19:12:43;93114.56;;;14.82;33.94
45941;BME280;31858;46.008;8.978;2022-09-27T19:22:46;93120.53;;;14.98;33.27
45941;BME280;31858;46.008;8.978;2022-09-27T19:32:48;93131.06;;;14.93;34.22
45941;BME280;31858;46.008;8.978;2022-09-27T19:42:53;93135.69;;;14.80;34.95
45941;BME280;31858;46.008;8.978;2022-09-27T19:52:55;93127.66;;;14.67;34.11
45941;BME280;31858;46.008;8.978;2022-09-27T20:02:57;93137.09;;;14.59;36.49
45941;BME280;31858;46.008;8.978;2022-09-27T20:12:59;93144.56;;;14.38;38.15
45941;BME280;31858;46.008;8.978;2022-09-27T20:23:02;93149.94;;;14.26;40.86
45941;BME280;31858;46.008;8.978;2022-09-27T20:33:04;93160.00;;;14.09;40.26
45941;BME280;31858;46.008;8.978;2022-09-27T20:43:24;93160.81;;;13.93;39.52
45941;BME280;31858;46.008;8.978;2022-09-27T20:53:26;93161.66;;;13.90;41.90
45941;BME280;31858;46.008;8.978;2022-09-27T21:03:29;93150.50;;;13.79;38.85
45941;BME280;31858;46.008;8.978;2022-09-27T21:13:31;93147.38;;;13.68;39.65
45941;BME280;31858;46.008;8.978;2022-09-27T21:23:35;93159.59;;;13.82;40.45
45941;BME280;31858;46.008;8.978;2022-09-27T21:33:38;93169.19;;;13.66;42.09
45941;BME280;31858;46.008;8.978;2022-09-27T21:43:43;93163.38;;;13.55;40.98
45941;BME280;31858;46.008;8.978;2022-09-27T21:53:48;93150.47;;;13.37;43.44
45941;BME280;31858;46.008;8.978;2022-09-27T22:03:52;93144.31;;;13.24;42.05
45941;BME280;31858;46.008;8.978;2022-09-27T22:13:55;93148.91;;;13.07;43.92
45941;BME280;31858;46.008;8.978;2022-09-27T22:24:00;93144.38;;;13.04;42.90
45941;BME280;31858;46.008;8.978;2022-09-27T22:34:04;93156.25;;;13.03;43.74
45941;BME280;31858;46.008;8.978;2022-09-27T22:44:08;93165.31;;;12.93;48.93
45941;BME280;31858;46.008;8.978;2022-09-27T22:54:09;93162.88;;;12.50;49.56
45941;BME280;31858;46.008;8.978;2022-09-27T23:04:12;93139.81;;;12.40;47.71
45941;BME280;31858;46.008;8.978;2022-09-27T23:14:14;93141.13;;;12.32;49.88
45941;BME280;31858;46.008;8.978;2022-09-27T23:24:17;93141.28;;;12.25;51.18
45941;BME280;31858;46.008;8.978;2022-09-27T23:34:19;93142.28;;;12.15;51.97
45941;BME280;31858;46.008;8.978;2022-09-27T23:44:23;93129.56;;;12.02;50.99
45941;BME280;31858;46.008;8.978;2022-09-27T23:54:25;93119.53;;;11.90;50.06
